Time;durP1;ratioP1;P1;durP2;ratioP2;P2;SDS_P1;SDS_P2;PMS_P1;PMS_P2;Temp;Humidity;BMP_temperature;BMP_pressure;BME280_temperature;BME280_humidity;BME280_pressure;Samples;Min_cycle;Max_cycle;Signal;HPM_P1;HPM_P2
2023/08/11 00:00:22;;;;;;;5.13;4.45;;;18.90;66.20;;;;;;5008791;28;20034;-77
2023/08/11 00:02:50;;;;;;;5.50;4.10;;;18.90;66.30;;;;;;5004283;28;20130;-77
2023/08/11 00:05:19;;;;;;;5.70;4.47;;;18.80;66.20;;;;;;5001017;28;20047;-77
2023/08/11 00:07:46;;;;;;;4.55;3.78;;;18.80;66.20;;;;;;5000973;28;20128;-77
2023/08/11 00:10:14;;;;;;;6.65;4.90;;;18.80;66.30;;;;;;5017261;28;20052;-77
2023/08/11 00:12:40;;;;;;;7.85;6.40;;;18.80;66.30;;;;;;5002655;28;20391;-77
2023/08/11 00:15:06;;;;;;;6.10;5.00;;;18.80;66.50;;;;;;5020605;28;20049;-77
2023/08/11 00:17:33;;;;;;;6.97;4.70;;;18.70;66.50;;;;;;5036978;28;20114;-77
2023/08/11 00:19:58;;;;;;;6.15;5.55;;;18.70;66.60;;;;;;5027081;28;20132;-77
2023/08/11 00:22:24;;;;;;;5.70;4.85;;;18.70;66.60;;;;;;5023659;28;20433;-77
2023/08/11 00:24:50;;;;;;;9.15;8.15;;;18.70;66.60;;;;;;5036724;28;20043;-78
2023/08/11 00:27:15;;;;;;;5.72;4.65;;;18.60;66.60;;;;;;5019982;28;20036;-78
2023/08/11 00:29:41;;;;;;;5.35;4.85;;;18.60;66.70;;;;;;5036820;28;20032;-77
2023/08/11 00:32:07;;;;;;;5.70;4.78;;;18.60;67.30;;;;;;5017035;28;20484;-77
2023/08/11 00:34:33;;;;;;;5.93;5.20;;;18.50;66.90;;;;;;5019544;28;20060;-77
2023/08/11 00:36:58;;;;;;;4.45;4.03;;;18.50;66.90;;;;;;5033484;28;20033;-78
2023/08/11 00:39:24;;;;;;;6.63;4.18;;;18.50;67.00;;;;;;5000766;28;20049;-77
2023/08/11 00:41:50;;;;;;;5.97;5.10;;;18.50;67.10;;;;;;5001210;28;20554;-77
2023/08/11 00:44:17;;;;;;;5.53;4.82;;;18.40;67.10;;;;;;5026961;28;20053;-77
2023/08/11 00:46:43;;;;;;;5.05;4.55;;;18.40;67.20;;;;;;5036007;28;20118;-77
2023/08/11 00:49:10;;;;;;;6.15;5.47;;;18.40;67.30;;;;;;5019829;28;20037;-77
2023/08/11 00:51:36;;;;;;;6.53;4.90;;;18.40;67.40;;;;;;5036533;28;20124;-77
2023/08/11 00:54:04;;;;;;;5.40;4.43;;;18.30;67.40;;;;;;5036526;28;20037;-78
2023/08/11 00:56:29;;;;;;;5.43;4.40;;;18.30;67.40;;;;;;5035111;28;20128;-78
2023/08/11 00:58:55;;;;;;;6.47;5.45;;;18.30;67.50;;;;;;5019781;28;20045;-77
2023/08/11 01:01:21;;;;;;;5.03;4.38;;;18.20;67.50;;;;;;5036343;28;20113;-77
2023/08/11 01:03:50;;;;;;;5.53;4.72;;;18.20;67.50;;;;;;5008862;28;20120;-78
2023/08/11 01:06:45;;;;;;;5.95;4.57;;;18.20;67.60;;;;;;5000166;28;20124;-78
2023/08/11 01:09:16;;;;;;;;;;;18.10;67.50;;;;;;5036159;28;20116;-78
2023/08/11 01:12:20;;;;;;;9.77;8.48;;;18.10;67.20;;;;;;5036240;28;19917;-78
2023/08/11 01:15:01;;;;;;;5.55;4.63;;;18.10;67.80;;;;;;5036353;28;20067;-78
2023/08/11 01:17:29;;;;;;;6.28;5.30;;;18.10;68.00;;;;;;5035970;28;20048;-78
2023/08/11 01:19:55;;;;;;;5.65;4.88;;;18.00;68.10;;;;;;5016129;28;20064;-78
2023/08/11 01:22:24;;;;;;;9.60;8.32;;;17.90;68.20;;;;;;5016100;28;20041;-78
2023/08/11 01:24:51;;;;;;;14.73;12.93;;;17.90;68.40;;;;;;5016205;28;20045;-78
2023/08/11 01:27:18;;;;;;;13.38;11.98;;;17.90;68.70;;;;;;5032599;28;20480;-78
2023/08/11 01:29:44;;;;;;;13.80;12.30;;;17.90;69.00;;;;;;5000192;28;20052;-78
2023/08/11 01:32:09;;;;;;;7.90;6.38;;;17.80;69.20;;;;;;5016166;28;20128;-78
2023/08/11 01:34:35;;;;;;;9.43;8.45;;;17.80;69.40;;;;;;5032641;28;20132;-78
2023/08/11 01:37:01;;;;;;;11.45;9.48;;;17.70;69.40;;;;;;5032418;28;20464;-78
2023/08/11 01:39:31;;;;;;;9.65;8.50;;;17.70;69.50;;;;;;5016234;28;20037;-78
2023/08/11 01:41:57;;;;;;;8.80;6.88;;;17.70;69.70;;;;;;5016081;28;20041;-78
2023/08/11 01:44:25;;;;;;;10.43;9.32;;;17.70;69.90;;;;;;5031739;28;20538;-78
2023/08/11 01:46:56;;;;;;;10.90;9.82;;;17.60;70.00;;;;;;5032032;28;20073;-78
2023/08/11 01:49:26;;;;;;;13.25;11.52;;;17.70;70.30;;;;;;5032365;28;20037;-78
2023/08/11 01:51:53;;;;;;;11.75;10.65;;;17.60;70.50;;;;;;5015954;28;20042;-78
2023/08/11 01:54:19;;;;;;;15.23;13.63;;;17.60;70.70;;;;;;5015657;28;20481;-78
2023/08/11 01:56:45;;;;;;;14.00;12.70;;;17.50;70.90;;;;;;5014726;28;20044;-77
2023/08/11 01:59:15;;;;;;;14.65;13.25;;;17.50;71.10;;;;;;5016044;28;20428;-78
2023/08/11 02:01:41;;;;;;;16.35;14.65;;;17.50;71.50;;;;;;5013199;28;20049;-78
2023/08/11 02:04:08;;;;;;;13.60;12.27;;;17.50;71.70;;;;;;4995959;28;20128;-78
2023/08/11 02:06:36;;;;;;;8.13;6.85;;;17.40;71.70;;;;;;4996200;28;20046;-78
2023/08/11 02:09:04;;;;;;;12.68;11.35;;;17.40;71.70;;;;;;5030222;28;20507;-78
2023/08/11 02:11:30;;;;;;;14.48;12.93;;;17.40;71.80;;;;;;4999690;28;20060;-78
2023/08/11 02:13:56;;;;;;;14.23;12.73;;;17.40;71.90;;;;;;5031822;28;20037;-78
2023/08/11 02:16:21;;;;;;;14.60;13.13;;;17.40;72.10;;;;;;5032140;28;20042;-78
2023/08/11 02:18:47;;;;;;;16.10;14.43;;;17.30;72.20;;;;;;5031637;28;20562;-78
2023/08/11 02:21:13;;;;;;;16.20;14.65;;;17.30;72.40;;;;;;5031934;28;20133;-78
2023/08/11 02:23:38;;;;;;;19.88;15.27;;;17.20;72.60;;;;;;5015390;28;20038;-78
2023/08/11 02:26:05;;;;;;;18.63;15.77;;;17.30;72.80;;;;;;5031874;28;20045;-78
2023/08/11 02:28:31;;;;;;;16.80;14.73;;;17.20;72.90;;;;;;4999525;28;20365;-78
2023/08/11 02:30:57;;;;;;;14.27;12.00;;;17.20;73.10;;;;;;4999147;28;20044;-78
2023/08/11 02:33:23;;;;;;;14.30;12.90;;;17.10;73.10;;;;;;5015550;28;20029;-77
2023/08/11 02:35:48;;;;;;;7.65;6.75;;;17.10;73.20;;;;;;5032093;28;20503;-78
2023/08/11 02:38:14;;;;;;;11.18;9.77;;;17.10;73.10;;;;;;5031718;28;20444;-78
2023/08/11 02:40:39;;;;;;;15.27;13.77;;;17.00;73.00;;;;;;5020149;28;20121;-78
2023/08/11 02:43:07;;;;;;;9.40;8.50;;;17.00;73.30;;;;;;4979404;28;20042;-78
2023/08/11 02:45:33;;;;;;;15.07;13.48;;;17.00;73.30;;;;;;4995784;28;20126;-78
2023/08/11 02:47:58;;;;;;;9.15;7.72;;;17.00;73.50;;;;;;5012005;28;20069;-78
2023/08/11 02:50:24;;;;;;;11.45;10.25;;;17.00;73.50;;;;;;5012002;28;20057;-78
2023/08/11 02:52:50;;;;;;;13.60;12.00;;;17.00;73.50;;;;;;4979467;28;20091;-78
2023/08/11 02:55:15;;;;;;;11.38;10.25;;;17.00;73.60;;;;;;4995601;28;20091;-78
2023/08/11 02:57:41;;;;;;;16.67;14.00;;;17.00;73.60;;;;;;4982437;28;20042;-78
2023/08/11 03:00:14;;;;;;;16.25;14.02;;;17.00;73.80;;;;;;4999235;28;20052;-78
2023/08/11 03:02:41;;;;;;;14.75;13.20;;;17.00;74.10;;;;;;5015554;28;20128;-78
2023/08/11 03:05:09;;;;;;;16.50;14.43;;;16.90;74.10;;;;;;5015314;28;20052;-78
2023/08/11 03:07:36;;;;;;;15.90;14.30;;;16.90;74.20;;;;;;5015698;28;20045;-78
2023/08/11 03:10:03;;;;;;;16.42;14.68;;;16.90;74.40;;;;;;5015419;28;20049;-78
2023/08/11 03:12:29;;;;;;;16.20;14.60;;;16.90;74.60;;;;;;5015592;28;20045;-78
2023/08/11 03:14:55;;;;;;;13.20;11.40;;;16.80;74.70;;;;;;5015588;28;20044;-78
2023/08/11 03:17:21;;;;;;;9.77;8.88;;;16.80;74.90;;;;;;4999106;28;20042;-78
2023/08/11 03:19:46;;;;;;;13.65;12.20;;;16.80;74.90;;;;;;4982925;28;20049;-78
2023/08/11 03:22:13;;;;;;;14.95;13.45;;;16.80;74.90;;;;;;5015401;28;20486;-78
2023/08/11 03:24:39;;;;;;;18.55;14.57;;;16.70;75.00;;;;;;4998559;28;20077;-78
2023/08/11 03:27:06;;;;;;;11.82;10.63;;;16.70;75.20;;;;;;5014968;28;20084;-78
2023/08/11 03:29:32;;;;;;;9.80;8.82;;;16.70;75.30;;;;;;4998663;28;20156;-78
2023/08/11 03:31:57;;;;;;;13.35;11.95;;;16.70;75.20;;;;;;5015021;28;20513;-78
2023/08/11 03:34:23;;;;;;;13.50;12.20;;;16.70;75.20;;;;;;4998932;28;20069;-78
2023/08/11 03:36:49;;;;;;;15.57;14.05;;;16.70;75.30;;;;;;5015010;28;20038;-78
2023/08/11 03:39:14;;;;;;;16.08;13.88;;;16.70;75.30;;;;;;4982219;28;20037;-78
2023/08/11 03:41:40;;;;;;;11.40;9.88;;;16.70;75.40;;;;;;4998380;28;20038;-78
2023/08/11 03:44:06;;;;;;;10.43;9.32;;;16.70;75.50;;;;;;5014979;28;20042;-78
2023/08/11 03:46:32;;;;;;;14.38;12.98;;;16.70;75.30;;;;;;4966211;28;20042;-78
2023/08/11 03:48:58;;;;;;;12.45;11.15;;;16.70;75.40;;;;;;4998432;28;20042;-78
2023/08/11 03:51:23;;;;;;;14.43;12.40;;;16.70;75.50;;;;;;5014975;28;20049;-78
2023/08/11 03:53:49;;;;;;;11.48;10.27;;;16.60;75.40;;;;;;5014558;28;20041;-78
2023/08/11 03:56:15;;;;;;;12.25;10.80;;;16.60;75.40;;;;;;5014528;28;20054;-78
2023/08/11 03:58:40;;;;;;;15.32;13.80;;;16.60;75.40;;;;;;4998405;28;20050;-78
2023/08/11 04:01:06;;;;;;;16.08;14.48;;;16.60;75.60;;;;;;4981988;28;20567;-78
2023/08/11 04:03:32;;;;;;;13.40;11.63;;;16.60;75.80;;;;;;5014417;28;20052;-78
2023/08/11 04:05:58;;;;;;;14.48;12.98;;;16.60;75.80;;;;;;5014214;28;20042;-78
2023/08/11 04:08:25;;;;;;;14.30;12.70;;;16.60;75.90;;;;;;4980840;28;20049;-78
2023/08/11 04:10:51;;;;;;;15.77;14.23;;;16.60;76.00;;;;;;5014283;28;20042;-78
2023/08/11 04:13:17;;;;;;;13.02;11.13;;;16.50;76.10;;;;;;4998170;28;20385;-78
2023/08/11 04:15:45;;;;;;;15.52;13.93;;;16.50;76.10;;;;;;4997988;28;20038;-78
2023/08/11 04:18:12;;;;;;;15.18;12.75;;;16.50;76.20;;;;;;5015514;28;20121;-78
2023/08/11 04:20:38;;;;;;;14.38;12.38;;;16.50;76.30;;;;;;5001269;28;20448;-78
2023/08/11 04:23:03;;;;;;;13.90;12.45;;;16.50;76.40;;;;;;5001260;28;20161;-78
2023/08/11 04:25:29;;;;;;;12.02;10.82;;;16.50;76.40;;;;;;5017254;28;20037;-78
2023/08/11 04:27:55;;;;;;;11.02;9.82;;;16.50;76.40;;;;;;5001238;28;20179;-78
2023/08/11 04:30:21;;;;;;;15.45;13.80;;;16.50;76.40;;;;;;5000901;28;20034;-78
2023/08/11 04:32:48;;;;;;;15.75;14.15;;;16.50;76.50;;;;;;5001136;28;20146;-78
2023/08/11 04:35:14;;;;;;;13.55;12.05;;;16.50;76.60;;;;;;4968560;28;20542;-78
2023/08/11 04:37:41;;;;;;;14.68;12.95;;;16.50;76.70;;;;;;5000717;28;20041;-78
2023/08/11 04:40:10;;;;;;;15.38;13.75;;;16.50;76.80;;;;;;5001147;28;20443;-78
2023/08/11 04:42:43;;;;;;;14.05;12.15;;;16.40;76.90;;;;;;4985819;28;20439;-78
2023/08/11 04:45:10;;;;;;;16.27;13.63;;;16.40;77.00;;;;;;5000493;28;20042;-78
2023/08/11 04:47:36;;;;;;;15.10;13.20;;;16.40;77.10;;;;;;5016835;28;20489;-78
2023/08/11 04:50:03;;;;;;;14.20;12.15;;;16.40;77.20;;;;;;5000465;28;20048;-78
2023/08/11 04:52:29;;;;;;;14.35;12.95;;;16.40;77.30;;;;;;5000913;28;20435;-78
2023/08/11 04:54:54;;;;;;;16.13;12.15;;;16.40;77.40;;;;;;5000383;28;20041;-78
2023/08/11 04:57:20;;;;;;;13.35;11.93;;;16.40;77.50;;;;;;5016379;28;20045;-78
2023/08/11 04:59:46;;;;;;;13.50;12.18;;;16.40;77.60;;;;;;5000123;28;20037;-78
2023/08/11 05:02:12;;;;;;;13.45;12.07;;;16.40;77.80;;;;;;5000167;28;20128;-78
2023/08/11 05:04:38;;;;;;;12.98;11.65;;;16.40;77.90;;;;;;5016183;28;20041;-78
2023/08/11 05:07:06;;;;;;;13.68;12.38;;;16.40;78.00;;;;;;5016611;28;20042;-78
2023/08/11 05:09:33;;;;;;;14.52;11.98;;;16.40;78.20;;;;;;5000116;28;20090;-78
2023/08/11 05:11:59;;;;;;;13.30;11.98;;;16.40;78.20;;;;;;5000000;28;20112;-78
2023/08/11 05:14:25;;;;;;;12.40;11.18;;;16.40;78.30;;;;;;5016179;28;20079;-78
2023/08/11 05:16:50;;;;;;;15.80;12.45;;;16.40;78.40;;;;;;4999492;28;20041;-78
2023/08/11 05:19:16;;;;;;;14.88;12.43;;;16.40;78.50;;;;;;4999568;28;20053;-78
2023/08/11 05:21:42;;;;;;;14.43;11.98;;;16.50;78.80;;;;;;4999675;28;20107;-78
2023/08/11 05:24:10;;;;;;;14.20;12.63;;;16.50;78.70;;;;;;4983713;28;20041;-78
2023/08/11 05:26:36;;;;;;;15.90;11.85;;;16.50;78.80;;;;;;5016142;28;20048;-78
2023/08/11 05:29:02;;;;;;;14.50;11.68;;;16.50;78.80;;;;;;4999909;28;20393;-78
2023/08/11 05:31:27;;;;;;;12.50;9.82;;;16.50;78.90;;;;;;4999606;28;20040;-78
2023/08/11 05:33:53;;;;;;;11.95;10.63;;;16.60;78.90;;;;;;5016293;28;20498;-78
2023/08/11 05:36:19;;;;;;;13.85;11.68;;;16.60;78.90;;;;;;4983287;28;20455;-78
2023/08/11 05:38:45;;;;;;;12.98;10.02;;;16.60;78.90;;;;;;4999825;28;20041;-78
2023/08/11 05:41:11;;;;;;;11.70;10.32;;;16.70;78.90;;;;;;4999243;28;20582;-78
2023/08/11 05:43:37;;;;;;;12.30;10.63;;;16.70;78.90;;;;;;5015665;28;20124;-78
2023/08/11 05:46:06;;;;;;;12.07;10.88;;;16.70;79.00;;;;;;4999235;28;20055;-78
2023/08/11 05:48:38;;;;;;;11.15;10.00;;;16.80;79.00;;;;;;5015421;28;20120;-78
2023/08/11 05:51:04;;;;;;;11.27;10.18;;;16.80;79.00;;;;;;4999896;28;20042;-77
2023/08/11 05:53:30;;;;;;;10.57;9.32;;;16.80;79.10;;;;;;5016084;28;20096;-78
2023/08/11 05:55:56;;;;;;;11.40;10.18;;;16.90;79.20;;;;;;5015532;28;20053;-78
2023/08/11 05:58:22;;;;;;;10.75;9.63;;;17.00;79.30;;;;;;4999269;28;20576;-78
2023/08/11 06:00:48;;;;;;;8.27;7.47;;;17.10;79.50;;;;;;5015837;28;20128;-78
2023/08/11 06:03:16;;;;;;;9.82;8.15;;;17.20;79.70;;;;;;5017291;28;20056;-78
2023/08/11 06:05:42;;;;;;;8.20;7.35;;;17.40;79.50;;;;;;5003156;28;20045;-78
2023/08/11 06:08:08;;;;;;;8.85;7.70;;;17.70;79.10;;;;;;5018829;28;20135;-78
2023/08/11 06:10:34;;;;;;;7.80;7.00;;;18.00;78.50;;;;;;5035187;28;20048;-78
2023/08/11 06:13:00;;;;;;;8.45;6.95;;;18.30;78.10;;;;;;5018823;28;20033;-78
2023/08/11 06:15:26;;;;;;;9.73;7.53;;;18.50;76.60;;;;;;5035128;28;20047;-78
2023/08/11 06:17:51;;;;;;;9.35;7.57;;;18.80;75.70;;;;;;5034876;28;20059;-78
2023/08/11 06:20:18;;;;;;;10.20;6.93;;;19.00;74.90;;;;;;5034924;28;20057;-78
2023/08/11 06:22:46;;;;;;;8.50;7.47;;;19.30;74.30;;;;;;5034967;28;20055;-78
2023/08/11 06:25:16;;;;;;;8.77;6.78;;;19.50;73.40;;;;;;5035066;28;20124;-77
2023/08/11 06:27:43;;;;;;;8.23;6.80;;;19.80;72.70;;;;;;5019275;28;20045;-78
2023/08/11 06:30:09;;;;;;;7.95;6.78;;;20.00;71.50;;;;;;5018720;28;20059;-76
2023/08/11 06:32:36;;;;;;;8.52;6.55;;;20.20;70.90;;;;;;5038198;28;20522;-77
2023/08/11 06:35:03;;;;;;;9.00;6.05;;;20.40;70.20;;;;;;5006495;28;20048;-77
2023/08/11 06:37:28;;;;;;;8.32;6.25;;;20.70;69.20;;;;;;5022432;28;20052;-77
2023/08/11 06:39:58;;;;;;;7.55;5.43;;;21.00;68.80;;;;;;5022484;28;20041;-77
2023/08/11 06:42:24;;;;;;;6.20;5.25;;;21.30;67.90;;;;;;5039207;28;20407;-77
2023/08/11 06:44:50;;;;;;;9.68;5.80;;;21.60;66.80;;;;;;5022341;28;20076;-77
2023/08/11 06:47:15;;;;;;;6.43;5.65;;;22.00;66.20;;;;;;5039134;28;20099;-77
2023/08/11 06:49:41;;;;;;;10.30;5.32;;;22.30;64.70;;;;;;5038724;28;20404;-77
2023/08/11 06:52:07;;;;;;;6.50;5.55;;;22.60;63.40;;;;;;5038737;28;20044;-77
2023/08/11 06:54:33;;;;;;;12.00;5.00;;;22.90;62.50;;;;;;5022251;28;20442;-77
2023/08/11 06:57:01;;;;;;;7.00;4.80;;;23.20;61.70;;;;;;5038760;28;20041;-77
2023/08/11 06:59:27;;;;;;;9.65;5.78;;;23.50;61.20;;;;;;5038464;28;20045;-77
2023/08/11 07:01:52;;;;;;;7.50;4.93;;;23.80;59.80;;;;;;5038343;28;20044;-77
2023/08/11 07:04:19;;;;;;;7.03;4.55;;;24.00;58.60;;;;;;5005536;28;20043;-77
2023/08/11 07:06:45;;;;;;;6.90;4.43;;;24.10;58.30;;;;;;5038203;28;20041;-77
2023/08/11 07:09:12;;;;;;;6.57;4.43;;;24.40;57.80;;;;;;5022185;28;20090;-77
2023/08/11 07:11:38;;;;;;;7.18;4.60;;;24.50;56.90;;;;;;5022325;28;20408;-78
2023/08/11 07:14:04;;;;;;;5.72;4.18;;;24.60;56.70;;;;;;5005619;28;20045;-77
2023/08/11 07:16:30;;;;;;;4.75;3.70;;;24.70;56.70;;;;;;5022117;28;20041;-77
2023/08/11 07:18:55;;;;;;;6.65;4.60;;;24.90;56.60;;;;;;5021704;28;20515;-78
2023/08/11 07:21:21;;;;;;;7.90;4.47;;;25.10;55.90;;;;;;5038237;28;20625;-78
2023/08/11 07:23:47;;;;;;;7.57;5.15;;;25.30;55.40;;;;;;5021693;28;20041;-77
2023/08/11 07:26:12;;;;;;;4.10;3.70;;;25.40;55.20;;;;;;5021751;28;20041;-78
2023/08/11 07:28:38;;;;;;;5.15;3.90;;;25.60;54.70;;;;;;5038276;28;20033;-78
2023/08/11 07:31:04;;;;;;;5.65;3.85;;;25.70;54.70;;;;;;5005387;28;20044;-77
2023/08/11 07:33:30;;;;;;;7.97;4.13;;;25.90;54.00;;;;;;5038346;28;20037;-77
2023/08/11 07:35:55;;;;;;;6.50;4.25;;;26.10;53.80;;;;;;5037938;28;20535;-78
2023/08/11 07:38:21;;;;;;;6.05;4.15;;;26.20;53.10;;;;;;5038306;28;20037;-77
2023/08/11 07:40:47;;;;;;;6.40;4.38;;;26.20;52.50;;;;;;5005157;28;20040;-78
2023/08/11 07:43:14;;;;;;;5.70;3.85;;;26.30;52.40;;;;;;5038046;28;20131;-78
2023/08/11 07:45:40;;;;;;;6.72;4.63;;;26.30;52.50;;;;;;5021180;28;20045;-78
2023/08/11 07:48:06;;;;;;;6.00;3.83;;;26.30;52.70;;;;;;5021101;28;20123;-78
2023/08/11 07:50:36;;;;;;;6.63;3.72;;;26.30;53.20;;;;;;5021428;28;20040;-78
2023/08/11 07:53:02;;;;;;;6.07;4.10;;;26.30;52.40;;;;;;5021162;28;20052;-78
2023/08/11 07:55:28;;;;;;;6.28;3.92;;;26.30;52.40;;;;;;5037595;28;20043;-78
2023/08/11 07:57:53;;;;;;;8.32;4.60;;;26.30;51.90;;;;;;5037657;28;20045;-78
2023/08/11 08:00:24;;;;;;;5.78;4.00;;;26.30;52.00;;;;;;5037709;28;20073;-78
2023/08/11 08:02:53;;;;;;;5.43;3.28;;;26.30;52.30;;;;;;5022111;28;20122;-78
2023/08/11 08:05:19;;;;;;;6.57;4.32;;;26.40;52.40;;;;;;5037410;28;20099;-78
2023/08/11 08:07:45;;;;;;;5.90;3.88;;;26.40;51.80;;;;;;5037476;28;20407;-78
2023/08/11 08:10:13;;;;;;;8.07;4.30;;;26.40;52.10;;;;;;5021277;28;20423;-78
2023/08/11 08:12:40;;;;;;;5.45;3.35;;;26.40;52.00;;;;;;5037314;28;20041;-78
2023/08/11 08:15:07;;;;;;;5.22;3.25;;;26.40;51.70;;;;;;5037617;28;20052;-78
2023/08/11 08:17:33;;;;;;;5.90;3.40;;;26.50;52.10;;;;;;5037258;28;20094;-78
2023/08/11 08:20:01;;;;;;;6.18;3.55;;;26.50;52.40;;;;;;5020498;28;20468;-78
2023/08/11 08:22:26;;;;;;;7.75;4.10;;;26.60;52.60;;;;;;5037518;28;20396;-78
2023/08/11 08:24:52;;;;;;;6.47;2.95;;;26.60;52.30;;;;;;5020544;28;20049;-78
2023/08/11 08:27:24;;;;;;;7.95;4.13;;;26.70;52.30;;;;;;5037468;28;20044;-79
2023/08/11 08:29:53;;;;;;;6.50;3.67;;;26.80;52.40;;;;;;5020410;28;20178;-78
2023/08/11 08:32:20;;;;;;;5.50;4.05;;;26.90;51.70;;;;;;5037140;28;20115;-80
2023/08/11 08:34:48;;;;;;;6.07;4.50;;;26.90;50.60;;;;;;5037151;28;20037;-78
2023/08/11 08:37:14;;;;;;;7.00;3.08;;;26.90;50.70;;;;;;5037181;28;20076;-77
2023/08/11 08:39:40;;;;;;;5.65;4.07;;;27.00;50.90;;;;;;5037035;28;20047;-79
2023/08/11 08:42:06;;;;;;;6.50;3.38;;;27.00;51.00;;;;;;5020528;28;20037;-79
2023/08/11 08:44:35;;;;;;;6.80;3.45;;;27.10;51.40;;;;;;5004094;28;20125;-79
2023/08/11 08:47:05;;;;;;;4.72;3.38;;;27.10;50.40;;;;;;5036583;28;20053;-79
2023/08/11 08:49:30;;;;;;;7.40;3.25;;;27.20;50.60;;;;;;5020220;28;20040;-79
2023/08/11 08:51:57;;;;;;;5.47;3.65;;;27.20;50.10;;;;;;5003943;28;20048;-79
2023/08/11 08:54:23;;;;;;;5.70;3.97;;;27.30;49.70;;;;;;5019549;28;20080;-79
2023/08/11 08:56:52;;;;;;;6.35;3.33;;;27.30;50.00;;;;;;5003993;28;20466;-79
2023/08/11 08:59:17;;;;;;;5.80;3.58;;;27.40;50.00;;;;;;5019945;28;20084;-79
2023/08/11 09:01:44;;;;;;;5.35;3.35;;;27.50;49.90;;;;;;5036391;28;20099;-79
2023/08/11 09:04:10;;;;;;;5.47;3.60;;;27.50;49.40;;;;;;5036580;28;20045;-80
2023/08/11 09:06:38;;;;;;;6.00;3.53;;;27.60;49.30;;;;;;5003386;28;20060;-79
2023/08/11 09:09:05;;;;;;;4.82;3.20;;;27.60;48.70;;;;;;5036134;28;20037;-79
2023/08/11 09:11:30;;;;;;;6.22;3.78;;;27.70;49.50;;;;;;5003744;28;20041;-79
2023/08/11 09:14:05;;;;;;;6.32;3.63;;;27.80;48.50;;;;;;5019754;28;20453;-79
2023/08/11 09:16:33;;;;;;;5.90;3.33;;;27.80;48.50;;;;;;5019648;28;20491;-79
2023/08/11 09:18:59;;;;;;;4.38;3.13;;;27.90;48.60;;;;;;5036259;28;20056;-79
2023/08/11 09:21:25;;;;;;;4.25;3.40;;;27.90;48.70;;;;;;5003608;28;20403;-80
2023/08/11 09:23:55;;;;;;;5.40;3.83;;;28.00;48.80;;;;;;5036202;28;20083;-79
2023/08/11 09:26:21;;;;;;;6.63;3.90;;;28.10;48.90;;;;;;5035993;28;20076;-79
2023/08/11 09:28:49;;;;;;;7.95;3.13;;;28.10;48.20;;;;;;5003296;28;20094;-80
2023/08/11 09:31:14;;;;;;;6.72;4.18;;;28.10;47.70;;;;;;5035808;28;20048;-79
2023/08/11 09:33:40;;;;;;;4.85;3.47;;;28.10;47.60;;;;;;5035836;28;20037;-79
2023/08/11 09:36:06;;;;;;;5.30;3.35;;;28.10;47.50;;;;;;5019315;28;20094;-79
2023/08/11 09:38:32;;;;;;;5.43;3.45;;;28.20;47.70;;;;;;5035802;28;20407;-79
2023/08/11 09:41:03;;;;;;;5.32;3.17;;;28.20;47.90;;;;;;5002755;28;20044;-78
2023/08/11 09:43:30;;;;;;;6.18;3.50;;;28.30;47.20;;;;;;5019017;28;20230;-77
2023/08/11 09:45:59;;;;;;;6.85;3.78;;;28.30;47.80;;;;;;5019092;28;20045;-77
2023/08/11 09:48:26;;;;;;;6.03;3.03;;;28.30;47.60;;;;;;5019205;28;20044;-78
2023/08/11 09:50:52;;;;;;;5.20;2.60;;;28.40;48.30;;;;;;5035889;28;20055;-78
2023/08/11 09:53:22;;;;;;;4.15;2.85;;;28.60;48.90;;;;;;5019625;28;20037;-78
2023/08/11 09:55:49;;;;;;;6.50;3.55;;;28.70;48.60;;;;;;5035513;28;20503;-78
2023/08/11 09:58:17;;;;;;;4.43;2.72;;;28.90;48.00;;;;;;5035549;28;20043;-78
2023/08/11 10:00:45;;;;;;;5.35;2.80;;;29.00;46.40;;;;;;5035131;28;20446;-78
2023/08/11 10:03:16;;;;;;;4.47;3.00;;;29.10;45.70;;;;;;5034511;28;20368;-78
2023/08/11 10:05:44;;;;;;;4.82;2.90;;;29.10;45.60;;;;;;5017855;28;20063;-77
2023/08/11 10:08:17;;;;;;;5.05;2.83;;;29.10;45.70;;;;;;5035157;28;20091;-77
2023/08/11 10:10:43;;;;;;;6.25;2.72;;;29.20;46.20;;;;;;5035575;28;20083;-78
2023/08/11 10:13:14;;;;;;;4.45;3.03;;;29.20;45.80;;;;;;5035393;28;20041;-77
2023/08/11 10:15:40;;;;;;;5.20;2.65;;;29.30;45.90;;;;;;5035348;28;20040;-77
2023/08/11 10:18:06;;;;;;;8.02;3.10;;;29.40;45.30;;;;;;5019124;28;20143;-78
2023/08/11 10:20:33;;;;;;;5.47;2.90;;;29.40;45.40;;;;;;5031896;28;20136;-78
2023/08/11 10:23:01;;;;;;;6.38;2.42;;;29.30;45.30;;;;;;5015766;28;20487;-77
2023/08/11 10:25:27;;;;;;;4.10;2.53;;;29.30;45.80;;;;;;5015874;28;20404;-77
2023/08/11 10:27:54;;;;;;;6.45;2.65;;;29.30;45.30;;;;;;5031922;28;20044;-78
2023/08/11 10:30:20;;;;;;;4.45;2.78;;;29.40;45.80;;;;;;5015591;28;20045;-77
2023/08/11 10:32:45;;;;;;;4.40;2.75;;;29.50;46.10;;;;;;5031890;28;20040;-78
2023/08/11 10:35:19;;;;;;;4.68;2.58;;;29.60;45.00;;;;;;5015384;28;20135;-79
2023/08/11 10:37:56;;;;;;;4.38;2.72;;;29.60;45.40;;;;;;5015689;28;20037;-78
2023/08/11 10:40:22;;;;;;;4.35;2.35;;;29.70;45.40;;;;;;5031780;28;20098;-78
2023/08/11 10:42:51;;;;;;;4.40;2.28;;;29.80;45.60;;;;;;5031991;28;20132;-78
2023/08/11 10:45:21;;;;;;;4.45;2.28;;;29.80;46.10;;;;;;5031597;28;20049;-78
2023/08/11 10:47:54;;;;;;;4.63;2.28;;;29.90;46.20;;;;;;5015606;28;20357;-78
2023/08/11 10:50:22;;;;;;;3.10;2.38;;;30.10;46.00;;;;;;5032393;28;20442;-78
2023/08/11 10:53:05;;;;;;;3.85;2.65;;;30.30;45.60;;;;;;5031976;28;20045;-78
2023/08/11 10:55:39;;;;;;;4.18;2.60;;;30.40;44.50;;;;;;5031887;28;20080;-78
2023/08/11 10:58:17;;;;;;;3.55;2.10;;;30.40;44.60;;;;;;5031896;28;20260;-78
2023/08/11 11:00:43;;;;;;;3.97;2.28;;;30.50;44.30;;;;;;5031681;28;20048;-78
2023/08/11 11:03:11;;;;;;;4.53;2.55;;;30.60;44.00;;;;;;5031636;28;20041;-78
2023/08/11 11:05:37;;;;;;;6.45;2.80;;;30.70;44.00;;;;;;5015312;28;20038;-78
2023/08/11 11:08:03;;;;;;;4.38;2.50;;;30.80;43.50;;;;;;5015325;28;20049;-78
2023/08/11 11:10:29;;;;;;;4.75;2.92;;;30.80;44.00;;;;;;5031465;28;20041;-78
2023/08/11 11:12:55;;;;;;;7.18;2.63;;;30.80;44.20;;;;;;5031443;28;20073;-78
2023/08/11 11:15:21;;;;;;;4.65;2.85;;;30.90;44.10;;;;;;5031559;28;20048;-78
2023/08/11 11:17:50;;;;;;;6.03;2.75;;;31.00;44.70;;;;;;5016635;28;20124;-78
2023/08/11 11:20:17;;;;;;;6.03;2.92;;;31.10;44.10;;;;;;5035029;28;20140;-78
2023/08/11 11:22:49;;;;;;;3.28;2.08;;;31.20;43.40;;;;;;5035090;28;20136;-78
2023/08/11 11:25:20;;;;;;;5.73;2.80;;;31.30;43.50;;;;;;5029163;28;20034;-77
2023/08/11 11:27:47;;;;;;;4.15;2.75;;;31.30;44.30;;;;;;5026381;28;20091;-77
2023/08/11 11:30:13;;;;;;;5.15;3.17;;;31.40;43.80;;;;;;5024418;28;20148;-77
2023/08/11 11:32:40;;;;;;;4.68;2.45;;;31.40;43.40;;;;;;5029892;28;20048;-77
2023/08/11 11:35:06;;;;;;;3.88;2.60;;;31.40;43.50;;;;;;5018506;28;20045;-77
2023/08/11 11:37:33;;;;;;;4.63;2.25;;;31.40;42.80;;;;;;5034709;28;20052;-77
2023/08/11 11:40:03;;;;;;;5.03;3.25;;;31.30;43.30;;;;;;5034869;28;20493;-77
2023/08/11 11:42:29;;;;;;;4.35;2.85;;;31.30;44.10;;;;;;5018515;28;20055;-77
2023/08/11 11:44:57;;;;;;;3.78;2.70;;;31.30;44.70;;;;;;5018139;28;20037;-77
2023/08/11 11:47:23;;;;;;;4.25;2.63;;;31.30;44.30;;;;;;5035129;28;20049;-77
2023/08/11 11:49:58;;;;;;;3.90;2.63;;;31.30;45.20;;;;;;5017832;28;20095;-77
2023/08/11 11:52:25;;;;;;;3.53;2.70;;;31.30;45.30;;;;;;5022694;28;20045;-77
2023/08/11 11:54:55;;;;;;;4.65;3.17;;;31.50;44.40;;;;;;5009035;28;20088;-77
2023/08/11 11:57:22;;;;;;;6.43;3.40;;;31.50;44.40;;;;;;5022927;28;20038;-77
2023/08/11 11:59:49;;;;;;;5.18;2.72;;;31.60;44.00;;;;;;5022710;28;20037;-77
2023/08/11 12:02:15;;;;;;;5.28;2.90;;;31.60;44.00;;;;;;5006826;28;20096;-77
2023/08/11 12:04:47;;;;;;;4.32;2.75;;;31.60;43.60;;;;;;5000904;28;20087;-77
2023/08/11 12:07:33;;;;;;;6.90;3.22;;;31.60;44.30;;;;;;5025140;28;20104;-77
2023/08/11 12:09:59;;;;;;;5.30;2.72;;;31.70;44.40;;;;;;5027995;28;20061;-77
2023/08/11 12:12:28;;;;;;;4.88;2.80;;;31.70;44.50;;;;;;5021505;28;20092;-77
2023/08/11 12:15:05;;;;;;;5.03;2.60;;;31.80;45.00;;;;;;5016848;28;20071;-77
2023/08/11 12:17:32;;;;;;;4.57;2.75;;;31.80;44.50;;;;;;5034045;28;20045;-77
2023/08/11 12:20:10;;;;;;;5.38;3.20;;;31.90;44.90;;;;;;4999710;28;20511;-77
2023/08/11 12:22:35;;;;;;;5.32;3.47;;;32.00;45.00;;;;;;5017206;28;20044;-77
2023/08/11 12:25:01;;;;;;;5.20;2.47;;;32.00;44.80;;;;;;5029815;28;20030;-77
2023/08/11 12:27:28;;;;;;;3.92;2.63;;;32.00;44.60;;;;;;5021142;28;20045;-77
2023/08/11 12:29:54;;;;;;;4.05;2.97;;;32.10;43.90;;;;;;5013176;28;20178;-77
2023/08/11 12:32:19;;;;;;;5.63;2.85;;;32.10;43.70;;;;;;5014012;28;20046;-78
2023/08/11 12:34:45;;;;;;;4.03;2.83;;;32.10;44.30;;;;;;5014003;28;20033;-78
2023/08/11 12:37:14;;;;;;;4.80;3.25;;;32.20;44.10;;;;;;5014000;28;20038;-78
2023/08/11 12:39:40;;;;;;;3.50;2.72;;;32.20;44.60;;;;;;4982065;28;20041;-78